AirNav   Everest Fuels
 
 856 users online  

56NH Therriaults Landing Airport
Middleton, New Hampshire, USA

GOING TO MIDDLETON?


FAA INFORMATION EFFECTIVE 18 JULY 2019

Location

FAA Identifier: 56NH
Lat/Long: 43-28-52.0000N / 071-03-24.7000W
43-28.866667N / 071-03.411667W
43.4811111 / -71.0568611
(estimated)
Elevation: 675 ft. / 206 m (estimated)
From city: 1 mile ENE of MIDDLETON, NH
Time zone: UTC -4 (UTC -5 during Standard Time)
Zip code: 03887

Airport Operations

Airport use: Private use. Permission required prior to landing
Activation date: 12/2015
Control tower: no
ARTCC: BOSTON CENTER
FSS: BANGOR FLIGHT SERVICE STATION
Attendance: CONTINUOUS
Wind indicator: yes
Segmented circle: no

Airport Communications

WX ASOS at DAW (13 nm SE): 135.275 (603-332-7814)
WX AWOS-3PT at SFM (16 nm E): 120.025 (207-324-1958)
WX AWOS-3PT at LCI (17 nm W): 133.525 (603-524-5134)

Nearby radio navigation aids

VOR radial/distance  VOR name  Freq  Var
ENEr297/19.6KENNEBUNK VOR/DME117.1017W
PSMr354/25.7PEASE VOR/DME116.5016W
CONr070/27.5CONCORD VOR/DME112.9015W
MHTr035/39.2MANCHESTER VOR/DME114.4015W

 
NDB name  Hdg/Dist  Freq  Var  ID
ROLLINS344/18.626016WESG . ... --.

Airport Services

Runway Information

Runway 15/33

Dimensions: 3000 x 100 ft. / 914 x 30 m
Surface: turf
RUNWAY 15  RUNWAY 33
Traffic pattern: leftleft

Airport Ownership and Management from official FAA records

Ownership: Privately-owned
Owner: CHARLES THERRIAULT
PO BOX 531
BARRINGTON, NH 03825
Phone 603-231-0284
Manager: CHARLES THERRIAULT
PO BOX 531
BARRINGTON, NH 03825
Phone 603-231-0284

Airport Operational Statistics

Aircraft based on the field: 1
Single engine airplanes: 1
    

Additional Remarks

FOR CD CTC BOSTON APCH AT 603-594-5551.

Instrument Procedures

There are no published instrument procedures at 56NH.

Some nearby airports with instrument procedures:

KDAW - Skyhaven Airport (13 nm SE)
KSFM - Sanford Seacoast Regional Airport (16 nm E)
KLCI - Laconia Municipal Airport (17 nm W)
3B4 - Littlebrook Air Park (24 nm SE)
B19 - Biddeford Municipal Airport (25 nm E)
 
Loc | Ops | Rwys | IFR | FBO | Links
Com | Nav | Svcs | Stats | Notes
Aerial photo
No photo
 
Airport distance calculator
Flying to Therriaults Landing Airport? Find the distance to fly.

From to 56NH

Sunrise and sunset
Times for 20-Jul-2019
 Local
(UTC-4)
 Zulu
(UTC)
Morning civil twilight04:4908:49
Sunrise05:2309:23
Sunset20:1900:19
Evening civil twilight20:5200:52

Current date and time
Zulu (UTC)  20-Jul-2019 12:38:40
Local (UTC-4)  20-Jul-2019 08:38:40
 
METAR
KDAW 
13nm SE 
201151Z AUTO 30004KT 10SM CLR 28/22 A2979 RMK AO2 SLP081 T02830222 10283 20239 53016
KSFM 
16nm E 
201156Z AUTO 29005KT 10SM CLR 28/23 A2979 RMK AO2 SLP087 6//// 7//// T02830233 10283 20217 53013 PNO $
KLCI 
16nm W 
201156Z AUTO 22004KT 10SM CLR 27/22 A2981 RMK AO2 SLP092 T02720222 10272 20222 51012
KCON 
26nm SW 
201151Z AUTO 23005KT 10SM CLR 27/22 A2981 RMK AO2 SLP092 T02670217 10267 20211 53017 $
TAF
KCON 
26nm SW 
201120Z 2012/2112 VRB03KT P6SM FEW250
KPSM 
27nm SE 
201120Z 2012/2112 27005KT P6SM FEW250
NOTAMs
Click for the latest NOTAMs
NOTAMs are issued by the DoD/FAA and will open in a separate window not controlled by AirNav.

 

 
 

Would you like to see your business listed on this page?

 If your business provides an interesting product or service to pilots, flight crews, aircraft, or users of the Therriaults Landing Airport, you should consider listing it here.  To start the listing process, click on the button below
 
Add a business
 

Other Pages about Therriaults Landing Airport

Update a link
 
Copyright © AirNav, LLC. All rights reserved. Privacy Policy  Contact